Time;durP1;ratioP1;P1;durP2;ratioP2;P2;SDS_P1;SDS_P2;PMS_P1;PMS_P2;Temp;Humidity;BMP_temperature;BMP_pressure;BME280_temperature;BME280_humidity;BME280_pressure;Samples;Min_cycle;Max_cycle;Signal;HPM_P1;HPM_P2
2022/03/25 00:02:00;;;;;;;19.48;14.57;;;9.60;1.00;;;;;;5057511;28;20032;-91
2022/03/25 00:04:25;;;;;;;21.20;15.40;;;9.60;1.00;;;;;;5046622;28;20032;-91
2022/03/25 00:06:52;;;;;;;19.90;14.32;;;9.60;1.00;;;;;;5051162;28;20017;-91
2022/03/25 00:09:17;;;;;;;19.92;14.70;;;9.70;1.00;;;;;;5053100;28;20037;-92
2022/03/25 00:11:43;;;;;;;20.08;14.75;;;9.30;1.00;;;;;;5055085;28;20473;-91
2022/03/25 00:14:11;;;;;;;18.85;13.88;;;9.20;1.00;;;;;;5053479;28;20037;-91
2022/03/25 00:16:37;;;;;;;21.13;14.15;;;9.10;1.00;;;;;;5059964;28;20377;-91
2022/03/25 00:19:03;;;;;;;18.80;13.25;;;9.50;1.00;;;;;;5055943;28;20041;-92
2022/03/25 00:21:29;;;;;;;20.13;14.05;;;9.40;1.00;;;;;;5052211;28;20013;-91
2022/03/25 00:23:55;;;;;;;18.10;13.70;;;9.50;1.00;;;;;;5054119;28;20033;-91
2022/03/25 00:26:21;;;;;;;18.10;13.65;;;9.60;1.00;;;;;;5053779;28;20032;-92
2022/03/25 00:28:46;;;;;;;15.77;11.52;;;9.40;1.00;;;;;;5053199;28;20033;-94
2022/03/25 00:31:12;;;;;;;18.30;12.35;;;9.80;1.00;;;;;;5051790;28;20052;-94
2022/03/25 00:33:39;;;;;;;18.95;11.80;;;9.40;1.00;;;;;;5051935;28;20041;-93
2022/03/25 00:36:05;;;;;;;16.73;12.95;;;9.80;1.00;;;;;;5053203;28;20021;-93
2022/03/25 00:38:31;;;;;;;19.52;12.45;;;9.40;1.00;;;;;;5054727;28;20036;-94
2022/03/25 00:40:57;;;;;;;20.77;12.85;;;9.50;1.00;;;;;;5064018;28;20039;-95
2022/03/25 00:43:24;;;;;;;17.85;12.00;;;9.30;1.00;;;;;;5050257;28;20049;-93
2022/03/25 00:45:51;;;;;;;19.23;12.60;;;9.40;1.00;;;;;;5051523;28;20070;-93
2022/03/25 00:48:17;;;;;;;14.93;12.10;;;9.20;1.00;;;;;;5053477;28;20052;-94
2022/03/25 00:50:43;;;;;;;13.73;10.85;;;9.40;1.00;;;;;;5053097;28;20025;-94
2022/03/25 00:53:10;;;;;;;16.55;11.43;;;9.20;1.00;;;;;;5051832;28;20025;-93
2022/03/25 00:55:37;;;;;;;17.08;11.50;;;9.00;1.00;;;;;;5051830;28;20488;-94
2022/03/25 00:58:03;;;;;;;14.02;10.80;;;8.90;1.00;;;;;;5051144;28;20110;-93
2022/03/25 01:00:29;;;;;;;14.13;11.05;;;9.30;1.00;;;;;;5051772;28;20109;-93
2022/03/25 01:02:54;;;;;;;13.90;11.15;;;9.10;1.00;;;;;;5053133;28;20029;-93
2022/03/25 01:05:20;;;;;;;16.52;11.90;;;9.10;1.00;;;;;;5052344;28;20025;-93
2022/03/25 01:07:46;;;;;;;16.20;11.15;;;9.20;1.00;;;;;;5051192;28;20072;-93
2022/03/25 01:10:13;;;;;;;15.82;12.57;;;9.10;1.00;;;;;;5050185;28;20405;-94
2022/03/25 01:12:39;;;;;;;17.50;12.13;;;9.10;1.00;;;;;;5052430;28;20059;-93
2022/03/25 01:15:05;;;;;;;16.38;12.63;;;9.30;1.00;;;;;;5051870;28;20456;-93
2022/03/25 01:17:31;;;;;;;21.92;15.00;;;9.00;1.00;;;;;;5064143;28;20056;-94
2022/03/25 01:19:57;;;;;;;22.40;15.02;;;9.00;1.00;;;;;;5051343;28;20040;-93
2022/03/25 01:22:23;;;;;;;23.33;15.27;;;8.90;1.00;;;;;;5052257;28;20032;-95
2022/03/25 01:24:49;;;;;;;22.70;14.93;;;9.10;1.00;;;;;;5050857;28;20124;-94
2022/03/25 01:27:15;;;;;;;20.83;15.38;;;8.80;1.00;;;;;;5066281;28;20071;-94
2022/03/25 01:29:40;;;;;;;19.75;14.60;;;8.90;1.00;;;;;;5050376;28;20108;-93
2022/03/25 01:32:08;;;;;;;18.40;13.75;;;9.10;1.00;;;;;;5050540;28;20080;-94
2022/03/25 01:34:34;;;;;;;18.67;13.55;;;8.80;1.00;;;;;;5050621;28;20085;-93
2022/03/25 01:37:01;;;;;;;19.33;13.70;;;9.00;1.00;;;;;;5052447;28;20485;-93
2022/03/25 01:39:27;;;;;;;18.73;14.50;;;8.90;1.00;;;;;;5052229;28;20033;-93
2022/03/25 01:41:52;;;;;;;17.25;13.77;;;8.60;1.00;;;;;;5051107;28;20028;-93
2022/03/25 01:44:29;;;;;;;17.25;13.00;;;8.60;1.00;;;;;;5053794;28;20040;-93
2022/03/25 01:46:57;;;;;;;17.00;12.63;;;9.20;1.00;;;;;;5050167;28;20037;-93
2022/03/25 01:49:23;;;;;;;16.15;11.82;;;8.60;1.00;;;;;;5051447;28;20032;-92
2022/03/25 01:51:51;;;;;;;15.43;11.57;;;8.80;1.00;;;;;;5050628;28;20032;-93
2022/03/25 01:54:26;;;;;;;13.93;11.15;;;8.50;1.00;;;;;;5049104;28;20033;-94
2022/03/25 01:56:58;;;;;;;13.73;10.50;;;8.10;1.00;;;;;;5051271;28;20025;-94
2022/03/25 01:59:24;;;;;;;15.15;10.88;;;8.20;1.00;;;;;;5050404;28;20394;-94
2022/03/25 02:01:50;;;;;;;14.73;10.88;;;8.40;1.00;;;;;;5062745;28;20032;-93
2022/03/25 02:04:17;;;;;;;14.50;11.48;;;8.40;1.00;;;;;;5050487;28;20482;-93
2022/03/25 02:06:44;;;;;;;14.50;11.82;;;8.60;1.00;;;;;;5048811;28;20108;-93
2022/03/25 02:09:10;;;;;;;14.85;12.00;;;8.30;1.00;;;;;;5033823;28;20036;-93
2022/03/25 02:11:35;;;;;;;14.73;10.90;;;8.40;1.00;;;;;;5053168;28;20092;-94
2022/03/25 02:14:02;;;;;;;13.38;10.65;;;8.60;1.00;;;;;;5044799;28;20061;-94
2022/03/25 02:16:38;;;;;;;14.35;11.55;;;8.40;1.00;;;;;;5051180;28;20506;-94
2022/03/25 02:19:05;;;;;;;14.45;11.60;;;8.60;1.00;;;;;;5050076;28;20048;-93
2022/03/25 02:21:32;;;;;;;18.80;13.50;;;8.50;1.00;;;;;;5050119;28;20059;-93
2022/03/25 02:23:58;;;;;;;17.77;12.98;;;8.60;1.00;;;;;;5050281;28;20025;-94
2022/03/25 02:26:24;;;;;;;16.83;12.98;;;8.60;1.00;;;;;;5051859;28;20021;-93
2022/03/25 02:28:50;;;;;;;14.75;11.68;;;8.60;1.00;;;;;;5050632;28;20039;-93
2022/03/25 02:31:17;;;;;;;16.88;12.25;;;8.90;1.00;;;;;;5051195;28;20025;-93
2022/03/25 02:33:43;;;;;;;16.27;12.07;;;8.60;1.00;;;;;;5049580;28;20051;-93
2022/03/25 02:36:09;;;;;;;14.93;11.73;;;8.70;1.00;;;;;;5050569;28;20037;-93
2022/03/25 02:38:35;;;;;;;15.57;12.05;;;8.50;1.00;;;;;;5051683;28;20131;-94
2022/03/25 02:41:01;;;;;;;16.55;11.85;;;8.50;1.00;;;;;;5035568;28;20501;-94
2022/03/25 02:43:27;;;;;;;15.48;11.88;;;8.50;1.00;;;;;;5039560;28;20071;-93
2022/03/25 02:45:53;;;;;;;16.23;11.90;;;8.50;1.00;;;;;;5051201;28;20497;-93
2022/03/25 02:48:18;;;;;;;16.65;12.18;;;8.90;1.00;;;;;;5050933;28;20508;-93
2022/03/25 02:50:46;;;;;;;17.55;13.13;;;8.50;1.00;;;;;;5050738;28;20027;-93
2022/03/25 02:53:13;;;;;;;17.55;11.90;;;8.40;1.00;;;;;;5051747;28;20029;-93
2022/03/25 02:55:43;;;;;;;17.10;12.43;;;8.20;1.00;;;;;;5048141;28;20024;-93
2022/03/25 02:58:09;;;;;;;16.27;11.73;;;8.20;1.00;;;;;;5050685;28;20056;-93
2022/03/25 03:00:35;;;;;;;15.32;10.63;;;8.30;1.00;;;;;;5050727;28;20033;-93
2022/03/25 03:03:01;;;;;;;15.52;10.55;;;8.10;1.00;;;;;;5049681;28;20048;-94
2022/03/25 03:05:31;;;;;;;15.55;11.55;;;8.20;1.00;;;;;;5052587;28;20040;-93
2022/03/25 03:07:57;;;;;;;16.33;12.50;;;7.90;1.00;;;;;;5049643;28;20029;-93
2022/03/25 03:10:24;;;;;;;18.45;12.43;;;8.00;1.00;;;;;;5050613;28;20056;-93
2022/03/25 03:12:52;;;;;;;16.13;12.10;;;7.40;1.00;;;;;;5050566;28;20021;-94
2022/03/25 03:15:19;;;;;;;14.57;11.77;;;7.40;1.00;;;;;;5048814;28;20044;-93
2022/03/25 03:17:45;;;;;;;13.98;10.55;;;7.60;1.00;;;;;;5049422;28;20056;-93
2022/03/25 03:20:11;;;;;;;14.15;10.80;;;7.60;1.00;;;;;;5057415;28;20033;-94
2022/03/25 03:22:37;;;;;;;14.43;10.20;;;7.50;1.00;;;;;;5051754;28;20028;-93
2022/03/25 03:25:03;;;;;;;15.63;11.50;;;7.50;1.00;;;;;;5053044;28;20025;-94
2022/03/25 03:27:29;;;;;;;14.45;11.80;;;7.10;1.00;;;;;;5069953;28;20051;-93
2022/03/25 03:29:56;;;;;;;15.50;11.70;;;7.00;1.00;;;;;;5053035;28;20508;-92
2022/03/25 03:32:23;;;;;;;16.42;11.73;;;7.20;1.00;;;;;;5053735;28;20485;-93
2022/03/25 03:34:49;;;;;;;14.05;11.50;;;7.30;1.00;;;;;;5052814;28;20052;-93
2022/03/25 03:37:15;;;;;;;15.10;11.27;;;7.20;1.00;;;;;;5052820;28;20485;-94
2022/03/25 03:39:40;;;;;;;15.93;12.63;;;7.20;1.00;;;;;;5053383;28;20040;-93
2022/03/25 03:42:06;;;;;;;17.33;12.40;;;7.00;1.00;;;;;;5052932;28;20143;-93
2022/03/25 03:44:32;;;;;;;15.68;12.77;;;7.00;1.00;;;;;;5055474;28;20029;-93
2022/03/25 03:46:58;;;;;;;15.70;12.75;;;7.40;1.00;;;;;;5047060;28;20033;-93
2022/03/25 03:49:24;;;;;;;17.10;12.50;;;7.20;1.00;;;;;;5052474;28;20028;-93
2022/03/25 03:51:50;;;;;;;15.43;11.80;;;7.20;1.00;;;;;;5054605;28;20029;-93
2022/03/25 03:54:16;;;;;;;16.73;12.35;;;7.10;1.00;;;;;;5052141;28;20146;-93
2022/03/25 03:56:42;;;;;;;16.80;12.55;;;7.40;1.00;;;;;;5055019;28;20048;-93
2022/03/25 03:59:07;;;;;;;16.23;12.13;;;7.20;1.00;;;;;;5047487;28;20094;-93
2022/03/25 04:01:33;;;;;;;16.00;12.60;;;7.20;1.00;;;;;;5052735;28;20029;-93
2022/03/25 04:03:59;;;;;;;17.45;11.85;;;7.20;1.00;;;;;;5051856;28;20035;-93
2022/03/25 04:06:25;;;;;;;13.65;11.30;;;7.10;1.00;;;;;;5053651;28;20087;-93
2022/03/25 04:08:51;;;;;;;17.73;12.38;;;7.10;1.00;;;;;;5054909;28;20083;-93
2022/03/25 04:11:17;;;;;;;17.02;12.10;;;7.20;1.00;;;;;;5052801;28;20536;-93
2022/03/25 04:13:44;;;;;;;18.15;11.98;;;7.10;1.00;;;;;;5051821;28;20388;-93
2022/03/25 04:16:10;;;;;;;14.80;11.55;;;7.20;1.00;;;;;;5054772;28;20029;-93
2022/03/25 04:18:37;;;;;;;16.85;11.93;;;7.50;1.00;;;;;;5054409;28;20112;-93
2022/03/25 04:21:04;;;;;;;15.23;11.88;;;7.00;1.00;;;;;;5054436;28;20037;-93
2022/03/25 04:23:29;;;;;;;15.95;11.25;;;6.80;1.00;;;;;;5054627;28;20504;-93
2022/03/25 04:25:55;;;;;;;14.57;11.40;;;7.10;1.00;;;;;;5051842;28;20044;-93
2022/03/25 04:28:22;;;;;;;15.77;11.20;;;7.10;1.00;;;;;;5053541;28;20473;-93
2022/03/25 04:30:47;;;;;;;16.88;11.40;;;6.80;1.00;;;;;;5052591;28;20032;-93
2022/03/25 04:33:14;;;;;;;17.73;11.70;;;6.90;1.00;;;;;;5052349;28;20041;-93
2022/03/25 04:35:39;;;;;;;14.32;11.10;;;6.80;1.00;;;;;;5055535;28;20060;-93
2022/03/25 04:38:06;;;;;;;15.35;10.60;;;6.50;1.00;;;;;;5051990;28;20075;-93
2022/03/25 04:40:32;;;;;;;15.38;10.98;;;6.60;1.00;;;;;;5052840;28;20028;-94
2022/03/25 04:43:00;;;;;;;16.17;11.43;;;6.70;1.00;;;;;;5047197;28;20128;-93
2022/03/25 04:45:27;;;;;;;15.50;11.35;;;7.20;1.00;;;;;;5053397;28;20492;-93
2022/03/25 04:47:53;;;;;;;15.95;12.00;;;6.90;1.00;;;;;;5070180;28;20060;-93
2022/03/25 04:50:19;;;;;;;13.45;11.05;;;6.90;1.00;;;;;;5052445;28;20389;-93
2022/03/25 04:52:46;;;;;;;14.48;10.82;;;6.90;1.00;;;;;;5053439;28;20025;-93
2022/03/25 04:55:12;;;;;;;15.40;10.88;;;7.00;1.00;;;;;;5053288;28;20497;-94
2022/03/25 04:57:42;;;;;;;14.32;11.73;;;7.20;1.00;;;;;;5050484;28;20021;-93
2022/03/25 05:00:09;;;;;;;13.93;10.90;;;7.60;1.00;;;;;;5053131;28;20432;-93
2022/03/25 05:02:35;;;;;;;14.05;10.68;;;7.00;1.00;;;;;;5054889;28;20025;-93
2022/03/25 05:05:01;;;;;;;13.32;10.68;;;7.40;1.00;;;;;;5050941;28;20075;-93
2022/03/25 05:07:27;;;;;;;15.70;10.90;;;6.90;1.00;;;;;;5047076;28;20115;-94
2022/03/25 05:09:53;;;;;;;15.30;10.90;;;6.80;1.00;;;;;;5051918;28;20485;-93
2022/03/25 05:12:18;;;;;;;16.60;11.52;;;6.70;1.00;;;;;;5048448;28;20057;-93
2022/03/25 05:14:44;;;;;;;12.57;11.07;;;6.90;1.00;;;;;;5035367;28;20057;-93
2022/03/25 05:17:10;;;;;;;13.82;11.30;;;6.70;1.00;;;;;;5055273;28;20059;-93
2022/03/25 05:19:36;;;;;;;12.77;10.55;;;6.90;1.00;;;;;;5052191;28;20124;-92
2022/03/25 05:22:02;;;;;;;14.35;11.07;;;6.60;1.00;;;;;;5053474;28;20040;-94
2022/03/25 05:24:28;;;;;;;15.43;11.38;;;6.70;1.00;;;;;;5050852;28;20120;-94
2022/03/25 05:26:56;;;;;;;16.25;10.85;;;6.50;1.00;;;;;;5052455;28;20111;-90
2022/03/25 05:29:22;;;;;;;14.02;11.38;;;7.00;1.00;;;;;;5051780;28;20024;-90
2022/03/25 05:31:48;;;;;;;14.52;10.85;;;6.90;1.00;;;;;;5049467;28;20032;-91
2022/03/25 05:34:13;;;;;;;15.68;10.70;;;6.50;1.00;;;;;;5049979;28;20454;-90
2022/03/25 05:36:39;;;;;;;15.32;11.10;;;6.90;1.00;;;;;;5048102;28;20504;-92
2022/03/25 05:39:05;;;;;;;15.35;11.38;;;6.80;1.00;;;;;;5049499;28;20048;-89
2022/03/25 05:41:31;;;;;;;16.23;11.70;;;7.00;1.00;;;;;;5052462;28;20443;-93
2022/03/25 05:43:56;;;;;;;18.77;11.23;;;6.70;1.00;;;;;;5050700;28;20033;-90
2022/03/25 05:46:23;;;;;;;15.07;11.27;;;7.00;1.00;;;;;;5047672;28;20024;-92
2022/03/25 05:48:48;;;;;;;15.35;11.23;;;6.90;1.00;;;;;;5050565;28;20021;-93
2022/03/25 05:51:15;;;;;;;17.05;11.70;;;6.90;1.00;;;;;;5067569;28;20112;-93
2022/03/25 05:53:41;;;;;;;13.70;11.30;;;6.60;1.00;;;;;;5054432;28;20028;-95
2022/03/25 05:56:08;;;;;;;17.35;12.10;;;6.40;1.00;;;;;;5050890;28;20037;-93
2022/03/25 05:58:37;;;;;;;14.80;11.13;;;6.60;1.00;;;;;;5052484;28;20501;-92
2022/03/25 06:01:04;;;;;;;16.40;12.00;;;6.60;1.00;;;;;;5050267;28;20170;-92
2022/03/25 06:03:31;;;;;;;16.88;12.70;;;6.30;1.00;;;;;;5051988;28;20032;-94
2022/03/25 06:05:56;;;;;;;19.08;12.80;;;6.30;1.00;;;;;;5051702;28;20488;-93
2022/03/25 06:08:23;;;;;;;18.70;12.45;;;6.40;1.00;;;;;;5050256;28;20029;-91
2022/03/25 06:10:49;;;;;;;16.63;12.15;;;6.70;1.00;;;;;;5051937;28;20025;-92
2022/03/25 06:13:15;;;;;;;16.27;11.30;;;6.40;1.00;;;;;;5062118;28;20404;-94
2022/03/25 06:15:41;;;;;;;15.27;12.50;;;6.50;1.00;;;;;;5046758;28;20029;-95
2022/03/25 06:18:06;;;;;;;14.93;11.93;;;6.90;1.00;;;;;;5050073;28;20024;-94
2022/03/25 06:20:32;;;;;;;17.70;11.35;;;6.50;1.00;;;;;;5053627;28;20033;-94
2022/03/25 06:22:58;;;;;;;16.98;11.50;;;6.50;1.00;;;;;;5049933;28;20493;-94
2022/03/25 06:25:24;;;;;;;16.48;12.15;;;6.70;1.00;;;;;;5051984;28;20029;-94
2022/03/25 06:27:57;;;;;;;16.73;12.20;;;6.90;1.00;;;;;;5050551;28;20070;-95
2022/03/25 06:30:27;;;;;;;18.65;11.98;;;7.00;1.00;;;;;;5052098;28;20034;-95
2022/03/25 06:32:53;;;;;;;16.75;12.10;;;7.40;1.00;;;;;;5052273;28;20045;-93
2022/03/25 06:35:20;;;;;;;18.02;12.40;;;7.70;1.00;;;;;;5052645;28;20040;-94
2022/03/25 06:37:47;;;;;;;14.70;11.68;;;7.90;1.00;;;;;;5050775;28;20013;-94
2022/03/25 06:40:13;;;;;;;18.23;12.00;;;8.10;1.00;;;;;;5049953;28;20040;-94
2022/03/25 06:42:40;;;;;;;18.35;11.77;;;8.10;1.00;;;;;;5050899;28;20040;-94
2022/03/25 06:45:09;;;;;;;15.77;11.90;;;8.20;1.00;;;;;;5051636;28;20025;-94
2022/03/25 06:47:35;;;;;;;18.25;11.98;;;8.20;1.00;;;;;;5052443;28;20071;-93
2022/03/25 06:50:02;;;;;;;15.52;11.40;;;8.10;1.00;;;;;;5050897;28;20029;-94
2022/03/25 06:52:28;;;;;;;14.55;11.90;;;8.10;1.00;;;;;;5048886;28;20037;-94
2022/03/25 06:54:54;;;;;;;16.38;13.05;;;7.90;1.00;;;;;;5050175;28;20029;-93
2022/03/25 06:57:20;;;;;;;19.70;12.68;;;8.00;1.00;;;;;;5050439;28;20112;-96
2022/03/25 06:59:46;;;;;;;18.95;12.40;;;8.10;1.00;;;;;;5051140;28;20036;-88
2022/03/25 07:02:12;;;;;;;18.42;13.05;;;8.60;1.00;;;;;;5049238;28;20106;-82
2022/03/25 07:04:38;;;;;;;20.85;13.13;;;9.00;1.00;;;;;;5050090;28;20029;-83
2022/03/25 07:07:06;;;;;;;21.92;13.65;;;9.10;1.00;;;;;;5049713;28;20021;-81
2022/03/25 07:09:32;;;;;;;21.17;13.75;;;9.10;1.00;;;;;;5050265;28;20025;-81
2022/03/25 07:11:59;;;;;;;24.08;13.95;;;9.10;1.00;;;;;;5050181;28;20426;-81
2022/03/25 07:14:26;;;;;;;20.13;13.77;;;9.30;1.00;;;;;;5051802;28;20047;-81
2022/03/25 07:16:52;;;;;;;18.65;13.30;;;9.30;1.00;;;;;;5049243;28;20063;-81
2022/03/25 07:19:18;;;;;;;22.67;13.52;;;9.40;1.00;;;;;;5049714;28;20521;-82
2022/03/25 07:21:44;;;;;;;19.05;13.57;;;9.40;1.00;;;;;;5049604;28;20013;-81
2022/03/25 07:24:11;;;;;;;18.52;13.35;;;9.50;1.00;;;;;;5047854;28;20404;-81
2022/03/25 07:26:37;;;;;;;18.83;12.88;;;9.70;1.00;;;;;;5050620;28;20032;-82
2022/03/25 07:29:03;;;;;;;17.40;13.10;;;9.80;1.00;;;;;;5047945;28;20033;-81
2022/03/25 07:31:32;;;;;;;16.27;13.00;;;10.20;1.00;;;;;;5048677;28;20492;-81
2022/03/25 07:33:58;;;;;;;17.83;13.02;;;10.00;1.00;;;;;;5049005;28;20111;-82
2022/03/25 07:36:24;;;;;;;24.17;12.98;;;10.00;1.00;;;;;;5048733;28;20066;-81
2022/03/25 07:38:50;;;;;;;22.42;12.73;;;9.90;1.00;;;;;;5050171;28;20033;-81
2022/03/25 07:41:16;;;;;;;18.48;12.70;;;10.30;1.00;;;;;;5049906;28;20521;-81
2022/03/25 07:43:42;;;;;;;19.05;13.00;;;10.20;1.00;;;;;;5049111;28;20108;-82
2022/03/25 07:46:08;;;;;;;18.30;12.50;;;10.60;1.00;;;;;;5048704;28;20025;-82
2022/03/25 07:48:33;;;;;;;18.70;12.85;;;10.40;1.00;;;;;;5048817;28;20040;-81
2022/03/25 07:50:59;;;;;;;17.55;12.15;;;10.50;1.00;;;;;;5048713;28;20448;-82
2022/03/25 07:53:25;;;;;;;17.77;12.70;;;10.60;1.00;;;;;;5050332;28;20378;-82
2022/03/25 07:55:51;;;;;;;16.95;11.82;;;10.70;1.00;;;;;;5048596;28;20025;-82
2022/03/25 07:58:21;;;;;;;19.73;12.63;;;10.90;1.00;;;;;;5049087;28;20037;-82
2022/03/25 08:00:51;;;;;;;21.63;12.63;;;11.00;1.00;;;;;;5047874;28;20033;-82
2022/03/25 08:03:18;;;;;;;16.17;12.20;;;11.20;1.00;;;;;;5047014;28;20013;-81
2022/03/25 08:05:45;;;;;;;19.23;12.90;;;11.30;1.00;;;;;;5053339;28;20033;-81
2022/03/25 08:08:11;;;;;;;18.05;12.38;;;11.30;1.00;;;;;;5050995;28;20066;-81
2022/03/25 08:10:41;;;;;;;22.05;12.38;;;11.50;1.00;;;;;;5051919;28;20436;-81
2022/03/25 08:13:07;;;;;;;18.92;12.43;;;11.60;1.00;;;;;;5051907;28;20139;-81
2022/03/25 08:15:34;;;;;;;18.52;13.25;;;11.70;1.00;;;;;;5051984;28;20021;-82
2022/03/25 08:18:05;;;;;;;22.55;13.80;;;11.70;1.00;;;;;;5052289;28;20389;-81
2022/03/25 08:20:41;;;;;;;23.10;13.50;;;11.80;1.00;;;;;;5054066;28;20024;-82
2022/03/25 08:23:11;;;;;;;18.63;13.45;;;11.90;1.00;;;;;;5051746;28;20071;-82
2022/03/25 08:28:23;;;;;;;20.35;13.80;;;12.00;1.00;;;;;;5052310;28;20086;-81
2022/03/25 08:30:49;;;;;;;23.80;14.30;;;12.10;1.00;;;;;;5050962;28;20027;-82
2022/03/25 08:33:15;;;;;;;23.13;14.95;;;12.10;1.00;;;;;;5051402;28;20045;-82
2022/03/25 08:35:42;;;;;;;20.73;13.98;;;12.20;1.00;;;;;;5053679;28;20373;-81
2022/03/25 08:38:09;;;;;;;20.70;15.10;;;12.20;1.00;;;;;;5049813;28;20043;-81
2022/03/25 08:40:36;;;;;;;25.50;14.43;;;12.20;1.00;;;;;;5051576;28;20501;-81
2022/03/25 08:43:04;;;;;;;17.17;14.35;;;12.30;1.00;;;;;;5049867;28;20028;-82
2022/03/25 08:45:30;;;;;;;19.45;14.30;;;12.40;1.00;;;;;;5050599;28;20095;-82
2022/03/25 08:47:56;;;;;;;23.52;14.90;;;12.40;1.00;;;;;;5051867;28;20029;-82
2022/03/25 08:50:22;;;;;;;26.33;15.48;;;12.50;1.00;;;;;;5053695;28;20021;-82
2022/03/25 08:52:50;;;;;;;17.17;13.10;;;12.60;1.00;;;;;;5050979;28;20044;-81
2022/03/25 08:55:18;;;;;;;20.00;13.90;;;12.60;1.00;;;;;;5051331;28;20473;-82
2022/03/25 08:57:45;;;;;;;15.60;12.73;;;12.60;1.00;;;;;;5049920;28;20021;-82
2022/03/25 09:00:14;;;;;;;21.20;14.63;;;12.70;1.00;;;;;;5035298;28;20460;-82
2022/03/25 09:02:44;;;;;;;18.15;14.50;;;12.80;1.00;;;;;;5049280;28;20515;-82
2022/03/25 09:05:11;;;;;;;15.82;13.20;;;12.90;1.00;;;;;;5051282;28;20444;-82
2022/03/25 09:07:38;;;;;;;22.23;13.80;;;13.10;1.00;;;;;;5050411;28;20028;-82
2022/03/25 09:10:05;;;;;;;19.75;13.88;;;13.10;1.00;;;;;;5051221;28;20028;-81
2022/03/25 09:12:33;;;;;;;18.38;14.25;;;13.20;1.00;;;;;;5051191;28;20036;-82
2022/03/25 09:14:59;;;;;;;15.85;13.15;;;13.50;1.00;;;;;;5050614;28;20029;-82
2022/03/25 09:17:25;;;;;;;18.80;13.73;;;13.60;1.00;;;;;;5052789;28;20056;-82
2022/03/25 09:19:51;;;;;;;22.30;14.93;;;13.60;1.00;;;;;;5050924;28;20036;-82
2022/03/25 09:22:17;;;;;;;18.73;14.13;;;13.80;1.00;;;;;;5049308;28;20025;-82
2022/03/25 09:24:42;;;;;;;19.50;13.93;;;13.90;1.00;;;;;;5049335;28;20484;-82
2022/03/25 09:27:08;;;;;;;17.23;13.50;;;13.90;1.00;;;;;;5051128;28;20025;-82
2022/03/25 09:29:34;;;;;;;23.15;14.32;;;14.10;1.00;;;;;;5052939;28;20032;-82
2022/03/25 09:31:59;;;;;;;18.08;13.50;;;14.30;1.00;;;;;;5050043;28;20049;-82
2022/03/25 09:37:09;;;;;;;17.83;13.35;;;17.00;1.00;;;;;;5050396;28;20024;-82
2022/03/25 09:39:35;;;;;;;20.23;14.07;;;18.30;1.00;;;;;;5050413;28;20415;-82
2022/03/25 09:42:03;;;;;;;18.27;14.13;;;18.70;1.00;;;;;;5050851;28;20025;-82
2022/03/25 09:44:30;;;;;;;16.83;14.00;;;19.60;99.90;;;;;;5052823;28;20488;-82
2022/03/25 09:46:56;;;;;;;16.38;13.13;;;20.00;99.90;;;;;;5049692;28;20025;-82
2022/03/25 09:49:21;;;;;;;15.50;13.52;;;20.10;99.90;;;;;;5050132;28;20558;-82
2022/03/25 09:51:47;;;;;;;17.42;14.15;;;20.90;99.90;;;;;;5050129;28;20500;-82
2022/03/25 09:54:14;;;;;;;18.88;13.65;;;21.40;99.90;;;;;;5050257;28;20465;-82
2022/03/25 09:56:40;;;;;;;15.35;13.45;;;21.40;99.90;;;;;;5052610;28;20064;-82
2022/03/25 09:59:07;;;;;;;16.25;13.77;;;21.80;99.90;;;;;;5050304;28;20076;-82
2022/03/25 10:01:34;;;;;;;15.48;13.68;;;22.40;99.90;;;;;;5048191;28;20496;-82
2022/03/25 10:04:00;;;;;;;15.00;13.40;;;22.80;99.90;;;;;;5048199;28;20086;-82
2022/03/25 10:06:26;;;;;;;17.05;13.82;;;22.90;99.90;;;;;;5050240;28;20439;-82
2022/03/25 10:08:56;;;;;;;14.95;13.05;;;22.90;99.90;;;;;;5050782;28;20086;-82
2022/03/25 10:11:27;;;;;;;16.10;13.35;;;22.80;99.90;;;;;;5051608;28;20028;-82
2022/03/25 10:14:15;;;;;;;17.50;13.75;;;23.20;99.90;;;;;;5049629;28;20042;-82
2022/03/25 10:16:42;;;;;;;14.88;13.27;;;23.80;99.90;;;;;;5049320;28;20052;-82
2022/03/25 10:19:10;;;;;;;14.65;13.15;;;24.20;99.90;;;;;;5049060;28;20524;-82
2022/03/25 10:21:54;;;;;;;14.23;12.80;;;24.40;99.90;;;;;;5049904;28;20083;-82
2022/03/25 10:24:48;;;;;;;15.73;13.27;;;24.30;99.90;;;;;;5035356;28;20036;-82
2022/03/25 10:27:25;;;;;;;15.52;12.90;;;24.80;99.90;;;;;;5034086;28;20025;-83
2022/03/25 10:29:54;;;;;;;17.05;13.60;;;24.90;99.90;;;;;;5048803;28;20025;-82
2022/03/25 10:32:24;;;;;;;16.23;12.63;;;25.10;99.90;;;;;;5051349;28;20479;-83
2022/03/25 10:35:07;;;;;;;14.75;13.07;;;25.30;99.90;;;;;;5048929;28;20043;-83
2022/03/25 10:37:33;;;;;;;16.70;13.13;;;26.00;99.90;;;;;;5049393;28;20095;-83
2022/03/25 10:39:58;;;;;;;16.95;13.35;;;26.20;99.90;;;;;;5047886;28;20049;-82
2022/03/25 10:42:24;;;;;;;16.85;13.27;;;26.90;99.90;;;;;;5047588;28;20056;-83
2022/03/25 10:44:50;;;;;;;15.00;13.38;;;27.60;99.90;;;;;;5050210;28;20477;-83
2022/03/25 10:47:16;;;;;;;16.27;13.38;;;28.50;99.90;;;;;;5050445;28;20021;-83
2022/03/25 10:49:43;;;;;;;17.13;13.32;;;29.30;99.90;;;;;;5049022;28;20024;-83
2022/03/25 10:52:30;;;;;;;16.55;13.18;;;29.50;99.90;;;;;;5049637;28;20029;-82
2022/03/25 10:55:15;;;;;;;18.85;13.65;;;29.70;99.90;;;;;;5049354;28;20534;-83
2022/03/25 10:57:51;;;;;;;14.02;12.57;;;29.90;99.90;;;;;;5049895;28;20043;-83
2022/03/25 11:00:17;;;;;;;15.73;13.43;;;31.00;99.90;;;;;;5034367;28;20053;-83
2022/03/25 11:02:47;;;;;;;20.17;13.80;;;30.60;99.90;;;;;;5051701;28;20559;-83
2022/03/25 11:05:14;;;;;;;15.57;13.60;;;30.70;99.90;;;;;;5048772;28;20037;-83
2022/03/25 11:07:43;;;;;;;15.45;13.93;;;30.30;99.90;;;;;;5049812;28;20017;-82
2022/03/25 11:10:12;;;;;;;18.20;14.20;;;29.80;99.90;;;;;;5049015;28;20389;-83
2022/03/25 11:12:43;;;;;;;15.45;13.75;;;30.70;99.90;;;;;;5048977;28;20052;-83
2022/03/25 11:15:14;;;;;;;15.90;14.18;;;30.80;99.90;;;;;;5049118;28;20025;-83
2022/03/25 11:17:43;;;;;;;16.08;14.25;;;29.80;99.90;;;;;;5046586;28;20104;-83
2022/03/25 11:20:11;;;;;;;16.20;14.20;;;30.40;99.90;;;;;;5047694;28;20087;-83
2022/03/25 11:22:49;;;;;;;16.15;14.40;;;30.60;99.90;;;;;;5048024;28;20459;-83
2022/03/25 11:25:18;;;;;;;15.95;14.30;;;30.70;99.90;;;;;;5049209;28;20027;-83
2022/03/25 11:27:56;;;;;;;17.55;15.00;;;31.80;99.90;;;;;;5049102;28;20033;-83
2022/03/25 11:30:22;;;;;;;15.82;14.20;;;30.40;99.90;;;;;;5034609;28;20481;-83
2022/03/25 11:33:09;;;;;;;17.48;14.18;;;31.80;99.90;;;;;;5049647;28;20090;-83
2022/03/25 11:35:41;;;;;;;15.80;13.85;;;32.30;99.90;;;;;;5051400;28;20448;-83
2022/03/25 11:38:18;;;;;;;16.98;15.27;;;32.40;99.90;;;;;;5049630;28;20036;-83
2022/03/25 11:40:53;;;;;;;15.52;13.88;;;31.30;99.90;;;;;;5052763;28;20373;-83
2022/03/25 11:43:27;;;;;;;16.38;14.68;;;31.80;99.90;;;;;;5052553;28;20064;-83
2022/03/25 11:46:03;;;;;;;18.08;16.17;;;31.70;99.90;;;;;;5052279;28;20116;-83
2022/03/25 11:48:28;;;;;;;17.17;15.48;;;31.50;99.90;;;;;;5052984;28;20020;-83
2022/03/25 11:50:58;;;;;;;16.88;15.00;;;31.90;99.90;;;;;;5053695;28;20033;-83
2022/03/25 11:53:23;;;;;;;19.05;14.48;;;32.20;99.90;;;;;;5052732;28;20040;-83
2022/03/25 11:56:03;;;;;;;18.40;16.10;;;32.10;99.90;;;;;;5053182;28;20025;-83
2022/03/25 11:58:31;;;;;;;16.92;15.20;;;32.20;99.90;;;;;;5051027;28;20062;-83
2022/03/25 12:01:16;;;;;;;18.45;15.40;;;32.60;99.90;;;;;;5051124;28;20063;-83
2022/03/25 12:03:50;;;;;;;17.75;15.90;;;33.00;99.90;;;;;;5053488;28;20029;-83
2022/03/25 12:06:20;;;;;;;16.52;14.90;;;32.30;99.90;;;;;;5037470;28;20488;-83
2022/03/25 12:08:59;;;;;;;16.13;14.55;;;32.90;99.90;;;;;;5054513;28;20029;-83
2022/03/25 12:11:55;;;;;;;17.48;15.77;;;31.60;99.90;;;;;;5053227;28;20032;-83
2022/03/25 12:14:33;;;;;;;18.08;16.17;;;32.50;99.90;;;;;;5053730;28;20067;-83
2022/03/25 12:17:22;;;;;;;18.85;17.00;;;32.40;99.90;;;;;;5052340;28;20028;-83
2022/03/25 12:19:51;;;;;;;18.58;16.60;;;32.90;99.90;;;;;;5051894;28;20045;-84
2022/03/25 12:22:19;;;;;;;19.75;17.42;;;33.70;99.90;;;;;;5052272;28;20020;-83
2022/03/25 12:25:10;;;;;;;18.23;16.42;;;32.70;99.90;;;;;;5051634;28;20487;-83
2022/03/25 12:27:38;;;;;;;20.02;18.00;;;33.20;99.90;;;;;;5039272;28;20075;-83
2022/03/25 12:30:04;;;;;;;18.95;16.98;;;33.70;99.90;;;;;;5051297;28;20064;-84
2022/03/25 12:32:34;;;;;;;20.95;18.10;;;34.20;99.90;;;;;;5053583;28;20040;-83
2022/03/25 12:35:05;;;;;;;19.65;17.67;;;34.00;99.90;;;;;;5052074;28;20091;-83
2022/03/25 12:38:14;;;;;;;21.85;18.45;;;33.30;99.90;;;;;;5050822;28;20401;-83
2022/03/25 12:40:40;;;;;;;20.30;18.17;;;33.00;99.90;;;;;;5048795;28;20036;-83
2022/03/25 12:43:11;;;;;;;19.88;17.58;;;33.10;99.90;;;;;;5051264;28;20460;-83
2022/03/25 12:45:50;;;;;;;20.65;18.55;;;33.60;99.90;;;;;;5051796;28;20033;-83
2022/03/25 12:48:21;;;;;;;19.13;17.17;;;33.40;99.90;;;;;;5036228;28;20052;-84
2022/03/25 12:50:51;;;;;;;21.63;19.52;;;33.30;99.90;;;;;;5052990;28;20033;-84